Rushville, IL

2:59 AM CST on November 27, 2014 (GMT -0600)
Rushville (Inner City) | Change Station
CLOSE
Current Station
Personal Weather Station
Location: Rushville, IL
Elevation: 666 ft
Nearby Weather Stations

Elev 666 ft 40.12 °N, 90.57 °W | Updated 6 seconds ago

Overcast
Overcast
25.0 °F
Feels Like 25 °F
N
0.0
Wind Variable Wind from WNW
Gusts 1.0 mph

Today
High -- | Low -- °F
--% Chance of Precip.
Yesterday
High -- | Low -- °F
Precip. -- in
7:01 AM 4:38 PM
Waxing Crescent, 27% visible
Pressure 30.35 in
Visibility 4.0 miles
Clouds Scattered Clouds 700 ft
Mostly Cloudy 1900 ft
Overcast 2800 ft
Windchill 25 °F
Dew Point 23 °F
Humidity 93%
Rainfall 0.00 in
Snow Depth Not available.
UV 0 out of 12
Pollen .10 out of 12
Air Quality Not available.
Flu Activity Not available.
METAR KMQB 270835Z AUTO 30007KT 4SM BR SCT007 BKN019 OVC028 M04/M05 A3035 RMK AO2 T10441051

More Conditions Fewer Conditions

Pressure 30.35 in
Visibility 4.0 miles
Clouds Scattered Clouds 700 ft
Mostly Cloudy 1900 ft
Overcast 2800 ft
Windchill 25 °F
Dew Point 23 °F
Humidity 93%
Rainfall 0.00 in
Snow Depth Not available.
UV 0 out of 12
Pollen .10 out of 12
Air Quality Not available.
Flu Activity Not available.
METAR KMQB 270835Z AUTO 30007KT 4SM BR SCT007 BKN019 OVC028 M04/M05 A3035 RMK AO2 T10441051

More Conditions Fewer Conditions

10-Day Weather Forecast

Almanac

Astronomy

Nov. 27, 2014 Rise Set
Actual Time
Civil Twilight
Nautical Twilight
Astronomical Twilight
Moon
Length of Visible Light
Length of Day
Tomorrow will be .
, % of the Moon is Illuminated

Today's Extremes

State Highs State Lows

Community

WunderPhotos

Upload Photos

1,773,965 photos uploaded!

WunderBlogs® & News

Nearby

Air Quality

  Air Quality AQ Index Pollutant
Not available.

Snow Depth

Station Depth Elevation

Earthquake Activity

City Distance Mag. Time & Date
Minimum magnitude displayed is 2.5.

Coastal Water Temperatures

Place Temperature

Nearby Weather Stations